sensor_id;sensor_type;location;lat;lon;timestamp;P1;durP1;ratioP1;P2;durP2;ratioP2
69534;SDS011;56754;51.568;5.048;2023-04-06T00:02:21;9.20;;;5.17;;
69534;SDS011;56754;51.568;5.048;2023-04-06T00:04:46;10.47;;;4.97;;
69534;SDS011;56754;51.568;5.048;2023-04-06T00:07:12;12.07;;;5.77;;
69534;SDS011;56754;51.568;5.048;2023-04-06T00:09:37;9.88;;;4.88;;
69534;SDS011;56754;51.568;5.048;2023-04-06T00:12:02;11.70;;;5.23;;
69534;SDS011;56754;51.568;5.048;2023-04-06T00:14:28;11.33;;;5.00;;
69534;SDS011;56754;51.568;5.048;2023-04-06T00:16:53;10.37;;;5.40;;
69534;SDS011;56754;51.568;5.048;2023-04-06T00:19:18;11.00;;;5.37;;
69534;SDS011;56754;51.568;5.048;2023-04-06T00:21:43;9.23;;;4.80;;
69534;SDS011;56754;51.568;5.048;2023-04-06T00:24:09;10.77;;;5.40;;
69534;SDS011;56754;51.568;5.048;2023-04-06T00:26:34;10.60;;;5.40;;
69534;SDS011;56754;51.568;5.048;2023-04-06T00:28:59;10.87;;;5.70;;
69534;SDS011;56754;51.568;5.048;2023-04-06T00:31:25;9.23;;;5.07;;
69534;SDS011;56754;51.568;5.048;2023-04-06T00:33:50;11.30;;;5.47;;
69534;SDS011;56754;51.568;5.048;2023-04-06T00:36:15;10.20;;;5.47;;
69534;SDS011;56754;51.568;5.048;2023-04-06T00:38:40;8.93;;;4.97;;
69534;SDS011;56754;51.568;5.048;2023-04-06T00:41:06;9.93;;;5.30;;
69534;SDS011;56754;51.568;5.048;2023-04-06T00:43:31;11.87;;;5.50;;
69534;SDS011;56754;51.568;5.048;2023-04-06T00:45:57;9.88;;;5.35;;
69534;SDS011;56754;51.568;5.048;2023-04-06T00:48:22;10.30;;;5.10;;
69534;SDS011;56754;51.568;5.048;2023-04-06T00:50:48;10.30;;;5.65;;
69534;SDS011;56754;51.568;5.048;2023-04-06T00:53:13;11.53;;;5.80;;
69534;SDS011;56754;51.568;5.048;2023-04-06T00:55:38;10.83;;;5.67;;
69534;SDS011;56754;51.568;5.048;2023-04-06T00:58:04;9.87;;;5.10;;
69534;SDS011;56754;51.568;5.048;2023-04-06T01:00:29;10.53;;;5.23;;
69534;SDS011;56754;51.568;5.048;2023-04-06T01:02:54;10.33;;;5.53;;
69534;SDS011;56754;51.568;5.048;2023-04-06T01:05:20;10.35;;;5.97;;
69534;SDS011;56754;51.568;5.048;2023-04-06T01:07:45;10.73;;;5.50;;
69534;SDS011;56754;51.568;5.048;2023-04-06T01:10:11;10.73;;;5.53;;
69534;SDS011;56754;51.568;5.048;2023-04-06T01:12:36;9.33;;;5.43;;
69534;SDS011;56754;51.568;5.048;2023-04-06T01:15:01;9.93;;;5.63;;
69534;SDS011;56754;51.568;5.048;2023-04-06T01:17:27;8.25;;;4.78;;
69534;SDS011;56754;51.568;5.048;2023-04-06T01:19:52;11.27;;;5.87;;
69534;SDS011;56754;51.568;5.048;2023-04-06T01:22:18;10.40;;;5.57;;
69534;SDS011;56754;51.568;5.048;2023-04-06T01:24:43;11.35;;;5.60;;
69534;SDS011;56754;51.568;5.048;2023-04-06T01:27:09;12.00;;;6.10;;
69534;SDS011;56754;51.568;5.048;2023-04-06T01:29:34;9.27;;;4.97;;
69534;SDS011;56754;51.568;5.048;2023-04-06T01:31:59;10.32;;;5.40;;
69534;SDS011;56754;51.568;5.048;2023-04-06T01:34:25;10.43;;;5.70;;
69534;SDS011;56754;51.568;5.048;2023-04-06T01:36:50;10.13;;;5.33;;
69534;SDS011;56754;51.568;5.048;2023-04-06T01:39:15;11.20;;;5.27;;
69534;SDS011;56754;51.568;5.048;2023-04-06T01:41:41;9.57;;;5.10;;
69534;SDS011;56754;51.568;5.048;2023-04-06T01:44:06;11.50;;;5.67;;
69534;SDS011;56754;51.568;5.048;2023-04-06T01:46:31;9.25;;;5.43;;
69534;SDS011;56754;51.568;5.048;2023-04-06T01:48:57;11.37;;;5.70;;
69534;SDS011;56754;51.568;5.048;2023-04-06T01:51:22;10.53;;;5.50;;
69534;SDS011;56754;51.568;5.048;2023-04-06T01:53:47;9.67;;;5.20;;
69534;SDS011;56754;51.568;5.048;2023-04-06T01:56:13;11.13;;;5.63;;
69534;SDS011;56754;51.568;5.048;2023-04-06T01:58:38;13.60;;;6.17;;
69534;SDS011;56754;51.568;5.048;2023-04-06T02:01:03;10.17;;;5.60;;
69534;SDS011;56754;51.568;5.048;2023-04-06T02:03:28;11.23;;;5.73;;
69534;SDS011;56754;51.568;5.048;2023-04-06T02:05:54;12.13;;;5.63;;
69534;SDS011;56754;51.568;5.048;2023-04-06T02:08:19;12.00;;;5.97;;
69534;SDS011;56754;51.568;5.048;2023-04-06T02:10:44;11.40;;;5.80;;
69534;SDS011;56754;51.568;5.048;2023-04-06T02:13:10;11.00;;;6.40;;
69534;SDS011;56754;51.568;5.048;2023-04-06T02:15:35;12.97;;;6.43;;
69534;SDS011;56754;51.568;5.048;2023-04-06T02:18:00;9.67;;;5.70;;
69534;SDS011;56754;51.568;5.048;2023-04-06T02:20:26;11.83;;;5.83;;
69534;SDS011;56754;51.568;5.048;2023-04-06T02:22:51;12.30;;;6.18;;
69534;SDS011;56754;51.568;5.048;2023-04-06T02:25:17;11.63;;;6.23;;
69534;SDS011;56754;51.568;5.048;2023-04-06T02:27:42;12.53;;;6.10;;
69534;SDS011;56754;51.568;5.048;2023-04-06T02:30:07;12.67;;;6.20;;
69534;SDS011;56754;51.568;5.048;2023-04-06T02:32:33;14.13;;;5.97;;
69534;SDS011;56754;51.568;5.048;2023-04-06T02:34:58;12.00;;;6.37;;
69534;SDS011;56754;51.568;5.048;2023-04-06T02:37:24;12.73;;;6.67;;
69534;SDS011;56754;51.568;5.048;2023-04-06T02:39:49;15.47;;;6.50;;
69534;SDS011;56754;51.568;5.048;2023-04-06T02:42:15;12.68;;;6.43;;
69534;SDS011;56754;51.568;5.048;2023-04-06T02:44:41;11.07;;;5.90;;
69534;SDS011;56754;51.568;5.048;2023-04-06T02:47:06;11.63;;;6.28;;
69534;SDS011;56754;51.568;5.048;2023-04-06T02:49:32;11.97;;;6.10;;
69534;SDS011;56754;51.568;5.048;2023-04-06T02:51:57;11.73;;;6.30;;
69534;SDS011;56754;51.568;5.048;2023-04-06T02:54:22;11.33;;;6.40;;
69534;SDS011;56754;51.568;5.048;2023-04-06T02:56:48;11.50;;;6.37;;
69534;SDS011;56754;51.568;5.048;2023-04-06T02:59:13;11.70;;;6.67;;
69534;SDS011;56754;51.568;5.048;2023-04-06T03:01:38;13.25;;;6.80;;
69534;SDS011;56754;51.568;5.048;2023-04-06T03:04:03;11.00;;;6.00;;
69534;SDS011;56754;51.568;5.048;2023-04-06T03:06:29;11.27;;;6.20;;
69534;SDS011;56754;51.568;5.048;2023-04-06T03:08:54;11.90;;;6.20;;
69534;SDS011;56754;51.568;5.048;2023-04-06T03:11:19;16.23;;;6.80;;
69534;SDS011;56754;51.568;5.048;2023-04-06T03:13:45;12.90;;;6.53;;
69534;SDS011;56754;51.568;5.048;2023-04-06T03:16:10;12.97;;;6.93;;
69534;SDS011;56754;51.568;5.048;2023-04-06T03:18:35;12.90;;;6.63;;
69534;SDS011;56754;51.568;5.048;2023-04-06T03:21:00;12.40;;;6.93;;
69534;SDS011;56754;51.568;5.048;2023-04-06T03:23:26;12.83;;;6.43;;
69534;SDS011;56754;51.568;5.048;2023-04-06T03:25:51;11.60;;;6.45;;
69534;SDS011;56754;51.568;5.048;2023-04-06T03:28:16;13.87;;;6.47;;
69534;SDS011;56754;51.568;5.048;2023-04-06T03:30:42;12.73;;;6.47;;
69534;SDS011;56754;51.568;5.048;2023-04-06T03:33:07;12.70;;;6.90;;
69534;SDS011;56754;51.568;5.048;2023-04-06T03:35:33;13.70;;;6.97;;
69534;SDS011;56754;51.568;5.048;2023-04-06T03:37:58;12.70;;;6.80;;
69534;SDS011;56754;51.568;5.048;2023-04-06T03:40:23;13.67;;;7.20;;
69534;SDS011;56754;51.568;5.048;2023-04-06T03:42:49;14.00;;;6.60;;
69534;SDS011;56754;51.568;5.048;2023-04-06T03:45:14;14.77;;;6.97;;
69534;SDS011;56754;51.568;5.048;2023-04-06T03:47:40;12.80;;;7.07;;
69534;SDS011;56754;51.568;5.048;2023-04-06T03:50:05;14.23;;;7.60;;
69534;SDS011;56754;51.568;5.048;2023-04-06T03:52:31;13.00;;;6.80;;
69534;SDS011;56754;51.568;5.048;2023-04-06T03:54:56;13.35;;;6.82;;
69534;SDS011;56754;51.568;5.048;2023-04-06T03:57:21;13.37;;;7.37;;
69534;SDS011;56754;51.568;5.048;2023-04-06T03:59:47;13.17;;;6.97;;
69534;SDS011;56754;51.568;5.048;2023-04-06T04:02:12;12.87;;;7.07;;
69534;SDS011;56754;51.568;5.048;2023-04-06T04:04:37;12.23;;;6.50;;
69534;SDS011;56754;51.568;5.048;2023-04-06T04:07:03;12.13;;;6.80;;
69534;SDS011;56754;51.568;5.048;2023-04-06T04:09:28;12.93;;;6.90;;
69534;SDS011;56754;51.568;5.048;2023-04-06T04:11:53;11.93;;;6.03;;
69534;SDS011;56754;51.568;5.048;2023-04-06T04:14:18;13.38;;;6.90;;
69534;SDS011;56754;51.568;5.048;2023-04-06T04:16:44;12.47;;;6.83;;
69534;SDS011;56754;51.568;5.048;2023-04-06T04:19:09;11.30;;;6.27;;
69534;SDS011;56754;51.568;5.048;2023-04-06T04:21:41;13.23;;;7.10;;
69534;SDS011;56754;51.568;5.048;2023-04-06T04:24:11;13.27;;;7.38;;
69534;SDS011;56754;51.568;5.048;2023-04-06T04:26:37;12.40;;;6.80;;
69534;SDS011;56754;51.568;5.048;2023-04-06T04:29:03;14.27;;;7.00;;
69534;SDS011;56754;51.568;5.048;2023-04-06T04:31:28;13.63;;;7.23;;
69534;SDS011;56754;51.568;5.048;2023-04-06T04:33:53;12.80;;;6.50;;
69534;SDS011;56754;51.568;5.048;2023-04-06T04:36:18;14.00;;;7.23;;
69534;SDS011;56754;51.568;5.048;2023-04-06T04:38:44;12.77;;;7.10;;
69534;SDS011;56754;51.568;5.048;2023-04-06T04:41:09;13.30;;;7.07;;
69534;SDS011;56754;51.568;5.048;2023-04-06T04:43:34;13.10;;;6.75;;
69534;SDS011;56754;51.568;5.048;2023-04-06T04:46:00;11.57;;;6.57;;
69534;SDS011;56754;51.568;5.048;2023-04-06T04:48:25;12.90;;;7.13;;
69534;SDS011;56754;51.568;5.048;2023-04-06T04:50:50;12.33;;;6.50;;
69534;SDS011;56754;51.568;5.048;2023-04-06T04:53:16;13.23;;;7.13;;
69534;SDS011;56754;51.568;5.048;2023-04-06T04:55:41;13.33;;;7.10;;
69534;SDS011;56754;51.568;5.048;2023-04-06T04:58:06;14.30;;;6.87;;
69534;SDS011;56754;51.568;5.048;2023-04-06T05:00:31;14.67;;;7.43;;
69534;SDS011;56754;51.568;5.048;2023-04-06T05:02:57;12.67;;;6.63;;
69534;SDS011;56754;51.568;5.048;2023-04-06T05:05:22;14.88;;;7.15;;
69534;SDS011;56754;51.568;5.048;2023-04-06T05:07:47;13.73;;;7.30;;
69534;SDS011;56754;51.568;5.048;2023-04-06T05:10:13;13.27;;;6.80;;
69534;SDS011;56754;51.568;5.048;2023-04-06T05:12:38;12.90;;;6.93;;
69534;SDS011;56754;51.568;5.048;2023-04-06T05:15:03;14.93;;;7.20;;
69534;SDS011;56754;51.568;5.048;2023-04-06T05:17:29;14.20;;;7.30;;
69534;SDS011;56754;51.568;5.048;2023-04-06T05:19:55;13.23;;;7.20;;
69534;SDS011;56754;51.568;5.048;2023-04-06T05:22:20;15.00;;;7.20;;
69534;SDS011;56754;51.568;5.048;2023-04-06T05:24:45;14.20;;;6.90;;
69534;SDS011;56754;51.568;5.048;2023-04-06T05:27:11;13.47;;;7.33;;
69534;SDS011;56754;51.568;5.048;2023-04-06T05:29:36;14.47;;;7.20;;
69534;SDS011;56754;51.568;5.048;2023-04-06T05:32:01;15.00;;;7.10;;
69534;SDS011;56754;51.568;5.048;2023-04-06T05:34:27;16.23;;;7.53;;
69534;SDS011;56754;51.568;5.048;2023-04-06T05:36:52;13.65;;;6.90;;
69534;SDS011;56754;51.568;5.048;2023-04-06T05:39:17;12.93;;;7.03;;
69534;SDS011;56754;51.568;5.048;2023-04-06T05:41:43;14.13;;;7.33;;
69534;SDS011;56754;51.568;5.048;2023-04-06T05:44:08;13.77;;;6.90;;
69534;SDS011;56754;51.568;5.048;2023-04-06T05:46:33;13.20;;;6.93;;
69534;SDS011;56754;51.568;5.048;2023-04-06T05:48:59;12.43;;;6.60;;
69534;SDS011;56754;51.568;5.048;2023-04-06T05:51:24;12.50;;;6.63;;
69534;SDS011;56754;51.568;5.048;2023-04-06T05:53:50;13.20;;;6.53;;
69534;SDS011;56754;51.568;5.048;2023-04-06T05:56:15;13.30;;;7.23;;
69534;SDS011;56754;51.568;5.048;2023-04-06T05:58:40;14.67;;;7.10;;
69534;SDS011;56754;51.568;5.048;2023-04-06T06:01:06;13.13;;;6.70;;
69534;SDS011;56754;51.568;5.048;2023-04-06T06:03:31;14.25;;;7.00;;
69534;SDS011;56754;51.568;5.048;2023-04-06T06:06:00;13.93;;;6.90;;
69534;SDS011;56754;51.568;5.048;2023-04-06T06:08:26;13.43;;;7.07;;
69534;SDS011;56754;51.568;5.048;2023-04-06T06:10:51;13.60;;;6.93;;
69534;SDS011;56754;51.568;5.048;2023-04-06T06:13:16;15.27;;;7.40;;
69534;SDS011;56754;51.568;5.048;2023-04-06T06:15:42;14.60;;;7.33;;
69534;SDS011;56754;51.568;5.048;2023-04-06T06:18:07;14.10;;;7.73;;
69534;SDS011;56754;51.568;5.048;2023-04-06T06:20:33;13.90;;;6.80;;
69534;SDS011;56754;51.568;5.048;2023-04-06T06:22:58;14.55;;;7.55;;
69534;SDS011;56754;51.568;5.048;2023-04-06T06:25:23;14.93;;;7.33;;
69534;SDS011;56754;51.568;5.048;2023-04-06T06:27:49;14.50;;;6.90;;
69534;SDS011;56754;51.568;5.048;2023-04-06T06:30:14;13.13;;;7.13;;
69534;SDS011;56754;51.568;5.048;2023-04-06T06:32:39;13.17;;;6.83;;
69534;SDS011;56754;51.568;5.048;2023-04-06T06:35:05;12.27;;;6.60;;
69534;SDS011;56754;51.568;5.048;2023-04-06T06:37:30;13.13;;;7.32;;
69534;SDS011;56754;51.568;5.048;2023-04-06T06:39:55;12.43;;;7.23;;
69534;SDS011;56754;51.568;5.048;2023-04-06T06:42:21;13.47;;;7.40;;
69534;SDS011;56754;51.568;5.048;2023-04-06T06:44:46;12.20;;;6.83;;
69534;SDS011;56754;51.568;5.048;2023-04-06T06:47:11;15.67;;;8.17;;
69534;SDS011;56754;51.568;5.048;2023-04-06T06:49:37;17.67;;;8.57;;
69534;SDS011;56754;51.568;5.048;2023-04-06T06:52:02;15.32;;;8.40;;
69534;SDS011;56754;51.568;5.048;2023-04-06T06:54:27;18.50;;;8.30;;
69534;SDS011;56754;51.568;5.048;2023-04-06T06:56:53;16.47;;;8.00;;
69534;SDS011;56754;51.568;5.048;2023-04-06T06:59:18;17.13;;;8.40;;
69534;SDS011;56754;51.568;5.048;2023-04-06T07:01:44;14.73;;;7.97;;
69534;SDS011;56754;51.568;5.048;2023-04-06T07:04:09;13.83;;;7.60;;
69534;SDS011;56754;51.568;5.048;2023-04-06T07:06:35;13.77;;;7.68;;
69534;SDS011;56754;51.568;5.048;2023-04-06T07:09:01;15.35;;;8.38;;
69534;SDS011;56754;51.568;5.048;2023-04-06T07:11:27;15.00;;;7.80;;
69534;SDS011;56754;51.568;5.048;2023-04-06T07:13:52;16.13;;;7.90;;
69534;SDS011;56754;51.568;5.048;2023-04-06T07:16:17;14.35;;;7.97;;
69534;SDS011;56754;51.568;5.048;2023-04-06T07:18:42;17.27;;;8.07;;
69534;SDS011;56754;51.568;5.048;2023-04-06T07:21:08;15.67;;;8.10;;
69534;SDS011;56754;51.568;5.048;2023-04-06T07:23:33;12.97;;;7.37;;
69534;SDS011;56754;51.568;5.048;2023-04-06T07:25:58;14.83;;;7.80;;
69534;SDS011;56754;51.568;5.048;2023-04-06T07:28:24;13.83;;;7.90;;
69534;SDS011;56754;51.568;5.048;2023-04-06T07:30:49;14.57;;;7.67;;
69534;SDS011;56754;51.568;5.048;2023-04-06T07:33:15;15.20;;;8.00;;
69534;SDS011;56754;51.568;5.048;2023-04-06T07:35:40;17.07;;;8.20;;
69534;SDS011;56754;51.568;5.048;2023-04-06T07:38:05;16.73;;;7.70;;
69534;SDS011;56754;51.568;5.048;2023-04-06T07:40:31;15.37;;;8.30;;
69534;SDS011;56754;51.568;5.048;2023-04-06T07:42:56;14.67;;;7.77;;
69534;SDS011;56754;51.568;5.048;2023-04-06T07:45:21;14.40;;;7.67;;
69534;SDS011;56754;51.568;5.048;2023-04-06T07:47:47;13.67;;;7.33;;
69534;SDS011;56754;51.568;5.048;2023-04-06T07:50:12;14.43;;;7.87;;
69534;SDS011;56754;51.568;5.048;2023-04-06T07:52:38;17.60;;;8.57;;
69534;SDS011;56754;51.568;5.048;2023-04-06T07:55:04;17.63;;;8.77;;
69534;SDS011;56754;51.568;5.048;2023-04-06T07:57:29;14.57;;;8.18;;
69534;SDS011;56754;51.568;5.048;2023-04-06T07:59:55;15.30;;;8.23;;
69534;SDS011;56754;51.568;5.048;2023-04-06T08:02:20;15.83;;;8.67;;
69534;SDS011;56754;51.568;5.048;2023-04-06T08:04:45;14.37;;;7.90;;
69534;SDS011;56754;51.568;5.048;2023-04-06T08:07:10;14.53;;;8.33;;
69534;SDS011;56754;51.568;5.048;2023-04-06T08:09:36;16.23;;;8.97;;
69534;SDS011;56754;51.568;5.048;2023-04-06T08:12:01;17.30;;;8.13;;
69534;SDS011;56754;51.568;5.048;2023-04-06T08:14:26;15.20;;;8.03;;
69534;SDS011;56754;51.568;5.048;2023-04-06T08:16:52;16.67;;;8.07;;
69534;SDS011;56754;51.568;5.048;2023-04-06T08:19:17;17.17;;;8.33;;
69534;SDS011;56754;51.568;5.048;2023-04-06T08:21:43;15.20;;;8.23;;
69534;SDS011;56754;51.568;5.048;2023-04-06T08:24:08;15.82;;;8.80;;
69534;SDS011;56754;51.568;5.048;2023-04-06T08:26:34;15.47;;;8.43;;
69534;SDS011;56754;51.568;5.048;2023-04-06T08:28:59;17.90;;;8.53;;
69534;SDS011;56754;51.568;5.048;2023-04-06T08:31:24;17.97;;;9.30;;
69534;SDS011;56754;51.568;5.048;2023-04-06T08:33:50;15.52;;;8.98;;
69534;SDS011;56754;51.568;5.048;2023-04-06T08:36:15;17.67;;;9.03;;
69534;SDS011;56754;51.568;5.048;2023-04-06T08:38:40;16.80;;;8.03;;
69534;SDS011;56754;51.568;5.048;2023-04-06T08:41:07;15.82;;;8.40;;
69534;SDS011;56754;51.568;5.048;2023-04-06T08:43:35;16.03;;;8.03;;
69534;SDS011;56754;51.568;5.048;2023-04-06T08:46:07;16.42;;;8.60;;
69534;SDS011;56754;51.568;5.048;2023-04-06T08:48:33;15.27;;;8.18;;
69534;SDS011;56754;51.568;5.048;2023-04-06T08:51:00;16.75;;;8.60;;
69534;SDS011;56754;51.568;5.048;2023-04-06T08:53:27;13.82;;;8.35;;
69534;SDS011;56754;51.568;5.048;2023-04-06T08:55:52;14.97;;;8.40;;
69534;SDS011;56754;51.568;5.048;2023-04-06T08:58:19;17.92;;;8.93;;
69534;SDS011;56754;51.568;5.048;2023-04-06T09:00:45;16.08;;;9.15;;
69534;SDS011;56754;51.568;5.048;2023-04-06T09:03:11;15.50;;;8.00;;
69534;SDS011;56754;51.568;5.048;2023-04-06T09:05:38;15.73;;;8.63;;
69534;SDS011;56754;51.568;5.048;2023-04-06T09:08:03;14.83;;;7.57;;
69534;SDS011;56754;51.568;5.048;2023-04-06T09:10:29;16.95;;;8.52;;
69534;SDS011;56754;51.568;5.048;2023-04-06T09:13:07;17.20;;;8.20;;
69534;SDS011;56754;51.568;5.048;2023-04-06T09:15:33;15.85;;;8.13;;
69534;SDS011;56754;51.568;5.048;2023-04-06T09:17:58;13.23;;;6.93;;
69534;SDS011;56754;51.568;5.048;2023-04-06T09:20:24;13.60;;;7.68;;
69534;SDS011;56754;51.568;5.048;2023-04-06T09:22:50;13.77;;;7.23;;
69534;SDS011;56754;51.568;5.048;2023-04-06T09:25:19;12.57;;;6.90;;
69534;SDS011;56754;51.568;5.048;2023-04-06T09:27:45;15.37;;;7.40;;
69534;SDS011;56754;51.568;5.048;2023-04-06T09:30:13;11.90;;;6.32;;
69534;SDS011;56754;51.568;5.048;2023-04-06T09:35:15;12.82;;;6.60;;
69534;SDS011;56754;51.568;5.048;2023-04-06T09:37:41;11.67;;;6.03;;
69534;SDS011;56754;51.568;5.048;2023-04-06T09:40:07;14.55;;;5.50;;
69534;SDS011;56754;51.568;5.048;2023-04-06T09:42:34;11.52;;;5.85;;
69534;SDS011;56754;51.568;5.048;2023-04-06T09:45:00;11.77;;;5.80;;
69534;SDS011;56754;51.568;5.048;2023-04-06T09:47:26;10.98;;;5.30;;
69534;SDS011;56754;51.568;5.048;2023-04-06T09:50:01;11.47;;;5.60;;
69534;SDS011;56754;51.568;5.048;2023-04-06T09:52:31;11.68;;;5.30;;
69534;SDS011;56754;51.568;5.048;2023-04-06T09:55:05;11.00;;;5.00;;
69534;SDS011;56754;51.568;5.048;2023-04-06T10:00:10;11.85;;;5.25;;
69534;SDS011;56754;51.568;5.048;2023-04-06T10:05:33;10.52;;;5.20;;
69534;SDS011;56754;51.568;5.048;2023-04-06T10:08:08;10.03;;;5.20;;
69534;SDS011;56754;51.568;5.048;2023-04-06T10:10:35;10.85;;;5.38;;
69534;SDS011;56754;51.568;5.048;2023-04-06T10:13:01;12.73;;;5.30;;
69534;SDS011;56754;51.568;5.048;2023-04-06T10:15:28;10.52;;;5.20;;
69534;SDS011;56754;51.568;5.048;2023-04-06T10:18:02;12.05;;;5.57;;
69534;SDS011;56754;51.568;5.048;2023-04-06T10:20:35;10.53;;;5.17;;
69534;SDS011;56754;51.568;5.048;2023-04-06T10:25:56;9.63;;;5.35;;
69534;SDS011;56754;51.568;5.048;2023-04-06T10:28:24;11.00;;;5.00;;
69534;SDS011;56754;51.568;5.048;2023-04-06T10:30:56;9.50;;;4.80;;
69534;SDS011;56754;51.568;5.048;2023-04-06T10:33:23;10.80;;;4.60;;
69534;SDS011;56754;51.568;5.048;2023-04-06T10:35:52;9.27;;;4.97;;
69534;SDS011;56754;51.568;5.048;2023-04-06T10:38:19;9.10;;;4.60;;
69534;SDS011;56754;51.568;5.048;2023-04-06T10:40:44;14.53;;;5.00;;
69534;SDS011;56754;51.568;5.048;2023-04-06T10:43:11;10.05;;;4.65;;
69534;SDS011;56754;51.568;5.048;2023-04-06T10:45:37;9.13;;;4.67;;
69534;SDS011;56754;51.568;5.048;2023-04-06T10:48:14;8.43;;;4.22;;
69534;SDS011;56754;51.568;5.048;2023-04-06T10:50:44;9.52;;;4.70;;
69534;SDS011;56754;51.568;5.048;2023-04-06T10:53:11;9.85;;;4.30;;
69534;SDS011;56754;51.568;5.048;2023-04-06T10:55:49;9.75;;;4.50;;
69534;SDS011;56754;51.568;5.048;2023-04-06T10:58:15;9.10;;;4.53;;
69534;SDS011;56754;51.568;5.048;2023-04-06T11:00:44;9.38;;;4.00;;
69534;SDS011;56754;51.568;5.048;2023-04-06T11:03:11;9.13;;;4.20;;
69534;SDS011;56754;51.568;5.048;2023-04-06T11:05:36;9.63;;;4.33;;
69534;SDS011;56754;51.568;5.048;2023-04-06T11:08:02;7.40;;;3.90;;
69534;SDS011;56754;51.568;5.048;2023-04-06T11:10:27;8.83;;;4.37;;
69534;SDS011;56754;51.568;5.048;2023-04-06T11:12:53;9.33;;;4.47;;
69534;SDS011;56754;51.568;5.048;2023-04-06T11:15:19;8.50;;;4.28;;
69534;SDS011;56754;51.568;5.048;2023-04-06T11:17:45;9.07;;;4.60;;
69534;SDS011;56754;51.568;5.048;2023-04-06T11:20:11;9.37;;;3.87;;
69534;SDS011;56754;51.568;5.048;2023-04-06T11:22:36;9.38;;;4.35;;
69534;SDS011;56754;51.568;5.048;2023-04-06T11:25:13;7.77;;;4.10;;
69534;SDS011;56754;51.568;5.048;2023-04-06T11:27:38;7.47;;;3.85;;
69534;SDS011;56754;51.568;5.048;2023-04-06T11:30:04;8.45;;;4.22;;
69534;SDS011;56754;51.568;5.048;2023-04-06T11:32:44;8.53;;;3.97;;
69534;SDS011;56754;51.568;5.048;2023-04-06T11:35:20;7.45;;;4.07;;
69534;SDS011;56754;51.568;5.048;2023-04-06T11:37:48;9.05;;;4.22;;
69534;SDS011;56754;51.568;5.048;2023-04-06T11:40:14;8.93;;;4.18;;
69534;SDS011;56754;51.568;5.048;2023-04-06T11:42:40;8.90;;;4.57;;
69534;SDS011;56754;51.568;5.048;2023-04-06T11:45:06;7.63;;;4.17;;
69534;SDS011;56754;51.568;5.048;2023-04-06T11:47:33;8.25;;;4.63;;
69534;SDS011;56754;51.568;5.048;2023-04-06T11:50:10;10.43;;;4.60;;
69534;SDS011;56754;51.568;5.048;2023-04-06T11:52:38;9.02;;;4.10;;
69534;SDS011;56754;51.568;5.048;2023-04-06T11:55:14;8.88;;;4.72;;
69534;SDS011;56754;51.568;5.048;2023-04-06T11:57:41;9.00;;;4.13;;
69534;SDS011;56754;51.568;5.048;2023-04-06T12:00:08;8.48;;;4.25;;
69534;SDS011;56754;51.568;5.048;2023-04-06T12:02:34;9.05;;;4.63;;
69534;SDS011;56754;51.568;5.048;2023-04-06T12:05:00;9.65;;;4.55;;
69534;SDS011;56754;51.568;5.048;2023-04-06T12:07:25;7.97;;;4.20;;
69534;SDS011;56754;51.568;5.048;2023-04-06T12:09:51;8.47;;;4.00;;
69534;SDS011;56754;51.568;5.048;2023-04-06T12:12:16;10.10;;;4.30;;
69534;SDS011;56754;51.568;5.048;2023-04-06T12:14:41;9.23;;;4.27;;
69534;SDS011;56754;51.568;5.048;2023-04-06T12:17:07;9.00;;;4.27;;
69534;SDS011;56754;51.568;5.048;2023-04-06T12:19:32;7.55;;;4.10;;
69534;SDS011;56754;51.568;5.048;2023-04-06T12:21:57;8.53;;;4.70;;
69534;SDS011;56754;51.568;5.048;2023-04-06T12:24:23;10.53;;;5.10;;
69534;SDS011;56754;51.568;5.048;2023-04-06T12:26:48;9.17;;;4.80;;
69534;SDS011;56754;51.568;5.048;2023-04-06T12:29:14;9.77;;;4.60;;
69534;SDS011;56754;51.568;5.048;2023-04-06T12:31:39;8.93;;;4.40;;
69534;SDS011;56754;51.568;5.048;2023-04-06T12:34:04;8.37;;;4.23;;
69534;SDS011;56754;51.568;5.048;2023-04-06T12:36:30;9.10;;;4.80;;
69534;SDS011;56754;51.568;5.048;2023-04-06T12:38:55;8.93;;;4.60;;
69534;SDS011;56754;51.568;5.048;2023-04-06T12:41:20;8.65;;;4.30;;
69534;SDS011;56754;51.568;5.048;2023-04-06T12:43:46;12.17;;;4.87;;
69534;SDS011;56754;51.568;5.048;2023-04-06T12:46:11;9.03;;;4.57;;
69534;SDS011;56754;51.568;5.048;2023-04-06T12:48:37;8.60;;;4.55;;
69534;SDS011;56754;51.568;5.048;2023-04-06T12:51:06;8.57;;;4.40;;
69534;SDS011;56754;51.568;5.048;2023-04-06T12:53:32;8.50;;;4.40;;
69534;SDS011;56754;51.568;5.048;2023-04-06T12:55:58;8.48;;;4.50;;
69534;SDS011;56754;51.568;5.048;2023-04-06T12:58:25;8.93;;;4.53;;
69534;SDS011;56754;51.568;5.048;2023-04-06T13:00:50;8.80;;;4.10;;
69534;SDS011;56754;51.568;5.048;2023-04-06T13:03:16;8.67;;;4.60;;
69534;SDS011;56754;51.568;5.048;2023-04-06T13:05:46;9.18;;;4.47;;
69534;SDS011;56754;51.568;5.048;2023-04-06T13:08:12;8.50;;;4.23;;
69534;SDS011;56754;51.568;5.048;2023-04-06T13:10:38;10.75;;;5.28;;
69534;SDS011;56754;51.568;5.048;2023-04-06T13:13:08;9.45;;;4.72;;
69534;SDS011;56754;51.568;5.048;2023-04-06T13:15:33;10.87;;;5.40;;
69534;SDS011;56754;51.568;5.048;2023-04-06T13:17:58;7.83;;;3.80;;
69534;SDS011;56754;51.568;5.048;2023-04-06T13:20:24;9.03;;;4.67;;
69534;SDS011;56754;51.568;5.048;2023-04-06T13:22:49;9.37;;;4.50;;
69534;SDS011;56754;51.568;5.048;2023-04-06T13:25:14;11.10;;;5.43;;
69534;SDS011;56754;51.568;5.048;2023-04-06T13:27:40;7.80;;;4.37;;
69534;SDS011;56754;51.568;5.048;2023-04-06T13:30:05;9.47;;;4.13;;
69534;SDS011;56754;51.568;5.048;2023-04-06T13:32:32;11.00;;;4.35;;
69534;SDS011;56754;51.568;5.048;2023-04-06T13:34:57;8.80;;;4.45;;
69534;SDS011;56754;51.568;5.048;2023-04-06T13:37:23;8.67;;;4.23;;
69534;SDS011;56754;51.568;5.048;2023-04-06T13:39:48;8.07;;;4.40;;
69534;SDS011;56754;51.568;5.048;2023-04-06T13:42:13;9.10;;;4.80;;
69534;SDS011;56754;51.568;5.048;2023-04-06T13:44:39;8.95;;;4.60;;
69534;SDS011;56754;51.568;5.048;2023-04-06T13:47:04;8.53;;;4.47;;
69534;SDS011;56754;51.568;5.048;2023-04-06T13:49:30;7.67;;;4.10;;
69534;SDS011;56754;51.568;5.048;2023-04-06T13:51:55;9.67;;;4.33;;
69534;SDS011;56754;51.568;5.048;2023-04-06T13:54:20;8.60;;;4.53;;
69534;SDS011;56754;51.568;5.048;2023-04-06T13:56:46;8.00;;;4.22;;
69534;SDS011;56754;51.568;5.048;2023-04-06T13:59:11;8.00;;;4.17;;
69534;SDS011;56754;51.568;5.048;2023-04-06T14:01:36;8.07;;;3.87;;
69534;SDS011;56754;51.568;5.048;2023-04-06T14:04:02;8.57;;;4.07;;
69534;SDS011;56754;51.568;5.048;2023-04-06T14:06:27;8.67;;;4.17;;
69534;SDS011;56754;51.568;5.048;2023-04-06T14:08:52;8.40;;;4.30;;
69534;SDS011;56754;51.568;5.048;2023-04-06T14:11:18;7.35;;;3.80;;
69534;SDS011;56754;51.568;5.048;2023-04-06T14:13:43;7.77;;;4.27;;
69534;SDS011;56754;51.568;5.048;2023-04-06T14:16:08;8.13;;;4.10;;
69534;SDS011;56754;51.568;5.048;2023-04-06T14:18:34;7.87;;;3.90;;
69534;SDS011;56754;51.568;5.048;2023-04-06T14:21:01;8.40;;;4.03;;
69534;SDS011;56754;51.568;5.048;2023-04-06T14:23:29;9.10;;;3.40;;
69534;SDS011;56754;51.568;5.048;2023-04-06T14:26:03;7.03;;;3.60;;
69534;SDS011;56754;51.568;5.048;2023-04-06T14:28:30;7.82;;;4.00;;
69534;SDS011;56754;51.568;5.048;2023-04-06T14:30:58;8.00;;;4.00;;
69534;SDS011;56754;51.568;5.048;2023-04-06T14:33:24;8.60;;;4.00;;
69534;SDS011;56754;51.568;5.048;2023-04-06T14:35:49;8.93;;;4.20;;
69534;SDS011;56754;51.568;5.048;2023-04-06T14:38:14;9.03;;;4.37;;
69534;SDS011;56754;51.568;5.048;2023-04-06T14:40:40;7.82;;;4.10;;
69534;SDS011;56754;51.568;5.048;2023-04-06T14:43:05;7.83;;;4.27;;